Time;durP1;ratioP1;P1;durP2;ratioP2;P2;SDS_P1;SDS_P2;PMS_P1;PMS_P2;Temp;Humidity;BMP_temperature;BMP_pressure;BME280_temperature;BME280_humidity;BME280_pressure;Samples;Min_cycle;Max_cycle;Signal;HPM_P1;HPM_P2
2021/09/07 00:02:23;;;;;;;12.15;1.95;;;;;;;;;;5097820;28;20063;-40
2021/09/07 00:04:49;;;;;;;12.45;2.28;;;;;;;;;;5091476;28;20051;-42
2021/09/07 00:07:17;;;;;;;11.38;2.03;;;;;;;;;;5095948;28;20024;-39
2021/09/07 00:09:44;;;;;;;8.52;1.67;;;;;;;;;;5099410;28;20059;-41
2021/09/07 00:12:11;;;;;;;8.02;1.92;;;;;;;;;;5095493;28;20019;-41
2021/09/07 00:14:38;;;;;;;14.35;2.78;;;;;;;;;;5089094;28;20027;-39
2021/09/07 00:17:05;;;;;;;7.93;1.88;;;;;;;;;;5099549;28;20046;-41
2021/09/07 00:19:32;;;;;;;6.40;1.88;;;;;;;;;;5096109;28;20093;-40
2021/09/07 00:21:59;;;;;;;7.75;1.70;;;;;;;;;;5095475;28;20024;-41
2021/09/07 00:24:26;;;;;;;8.13;1.83;;;;;;;;;;5091747;28;20109;-41
2021/09/07 00:26:53;;;;;;;9.13;2.28;;;;;;;;;;5104230;28;20102;-42
2021/09/07 00:29:20;;;;;;;4.78;1.58;;;;;;;;;;5077602;28;20490;-42
2021/09/07 00:31:47;;;;;;;10.90;1.75;;;;;;;;;;5079722;28;20020;-42
2021/09/07 00:34:14;;;;;;;7.80;1.88;;;;;;;;;;5095730;28;20027;-41
2021/09/07 00:36:41;;;;;;;5.30;1.95;;;;;;;;;;5102159;28;20491;-42
2021/09/07 00:39:08;;;;;;;7.22;1.65;;;;;;;;;;5095933;28;20103;-40
2021/09/07 00:41:37;;;;;;;10.35;1.92;;;;;;;;;;5092258;28;20020;-40
2021/09/07 00:44:19;;;;;;;4.78;1.98;;;;;;;;;;5094926;28;20153;-41
2021/09/07 00:46:49;;;;;;;8.38;2.15;;;;;;;;;;5077651;28;20384;-41
2021/09/07 00:49:17;;;;;;;8.93;2.58;;;;;;;;;;5088294;28;20036;-41
2021/09/07 00:51:45;;;;;;;8.90;3.50;;;;;;;;;;5079807;28;20531;-41
2021/09/07 00:54:13;;;;;;;14.88;4.10;;;;;;;;;;5087671;28;20028;-41
2021/09/07 00:56:41;;;;;;;16.73;5.45;;;;;;;;;;5068191;28;20383;-42
2021/09/07 00:59:09;;;;;;;15.50;6.63;;;;;;;;;;5079461;28;20119;-41
2021/09/07 01:01:36;;;;;;;11.38;5.82;;;;;;;;;;5083925;28;20027;-41
2021/09/07 01:04:03;;;;;;;14.45;6.38;;;;;;;;;;5090388;28;20035;-41
2021/09/07 01:06:30;;;;;;;14.52;6.03;;;;;;;;;;5091502;28;20012;-41
2021/09/07 01:08:58;;;;;;;12.70;5.43;;;;;;;;;;5094910;28;20012;-41
2021/09/07 01:11:25;;;;;;;10.85;5.03;;;;;;;;;;5080573;28;20027;-42
2021/09/07 01:13:52;;;;;;;14.73;5.78;;;;;;;;;;5100247;28;20099;-42
2021/09/07 01:16:19;;;;;;;16.50;5.32;;;;;;;;;;5091376;28;20019;-45
2021/09/07 01:18:46;;;;;;;15.82;4.78;;;;;;;;;;5094118;28;20046;-40
2021/09/07 01:21:14;;;;;;;15.48;5.40;;;;;;;;;;5092490;28;20020;-42
2021/09/07 01:23:42;;;;;;;12.07;5.20;;;;;;;;;;5093316;28;20078;-42
2021/09/07 01:26:10;;;;;;;18.65;4.55;;;;;;;;;;5090469;28;20420;-41
2021/09/07 01:28:37;;;;;;;14.52;4.65;;;;;;;;;;5093219;28;20030;-40
2021/09/07 01:31:06;;;;;;;12.57;4.57;;;;;;;;;;5096949;28;20020;-40
2021/09/07 01:33:33;;;;;;;14.60;4.43;;;;;;;;;;5093629;28;20024;-41
2021/09/07 01:36:00;;;;;;;14.55;4.35;;;;;;;;;;5092190;28;20102;-41
2021/09/07 01:38:28;;;;;;;14.60;4.30;;;;;;;;;;5097206;28;20402;-41
2021/09/07 01:40:56;;;;;;;10.35;3.90;;;;;;;;;;5092539;28;21319;-41
2021/09/07 01:43:23;;;;;;;15.45;4.85;;;;;;;;;;5091809;28;20089;-43
2021/09/07 01:45:51;;;;;;;9.75;3.83;;;;;;;;;;5103577;28;20035;-39
2021/09/07 01:48:19;;;;;;;14.13;3.67;;;;;;;;;;5104632;28;20060;-39
2021/09/07 01:50:47;;;;;;;19.27;4.10;;;;;;;;;;5105431;28;20066;-42
2021/09/07 01:53:14;;;;;;;9.52;4.10;;;;;;;;;;5103243;28;20016;-39
2021/09/07 01:55:42;;;;;;;9.00;4.07;;;;;;;;;;5086999;28;20470;-40
2021/09/07 01:58:09;;;;;;;8.32;3.35;;;;;;;;;;5070066;28;20028;-44
2021/09/07 02:00:37;;;;;;;9.73;3.60;;;;;;;;;;5094502;28;20019;-42
2021/09/07 02:03:04;;;;;;;8.38;3.45;;;;;;;;;;5087463;28;20028;-41
2021/09/07 02:05:31;;;;;;;12.68;3.60;;;;;;;;;;5093819;28;20697;-42
2021/09/07 02:07:58;;;;;;;14.77;3.42;;;;;;;;;;5082439;28;20020;-43
2021/09/07 02:10:25;;;;;;;15.32;4.03;;;;;;;;;;5097439;28;20029;-45
2021/09/07 02:12:52;;;;;;;11.90;3.50;;;;;;;;;;5084985;28;20024;-45
2021/09/07 02:15:19;;;;;;;19.58;4.47;;;;;;;;;;5082272;28;20016;-44
2021/09/07 02:17:46;;;;;;;11.25;3.55;;;;;;;;;;5086598;28;20028;-42
2021/09/07 02:20:13;;;;;;;13.10;3.72;;;;;;;;;;5081556;28;20066;-44
2021/09/07 02:22:41;;;;;;;9.68;3.10;;;;;;;;;;5074049;28;20028;-42
2021/09/07 02:25:08;;;;;;;9.15;3.30;;;;;;;;;;5078381;28;20025;-43
2021/09/07 02:27:36;;;;;;;10.57;3.63;;;;;;;;;;5080854;28;20035;-43
2021/09/07 02:30:03;;;;;;;9.63;3.10;;;;;;;;;;5080639;28;20028;-43
2021/09/07 02:32:30;;;;;;;8.02;2.80;;;;;;;;;;5079974;28;20447;-46
2021/09/07 02:34:57;;;;;;;9.98;3.10;;;;;;;;;;5085160;28;20024;-44
2021/09/07 02:37:24;;;;;;;6.85;3.03;;;;;;;;;;5105586;28;20437;-44
2021/09/07 02:39:51;;;;;;;6.88;2.70;;;;;;;;;;5093213;28;20475;-45
2021/09/07 02:42:18;;;;;;;15.38;3.30;;;;;;;;;;5092960;28;20490;-42
2021/09/07 02:44:45;;;;;;;10.60;3.00;;;;;;;;;;5093158;28;20027;-42
2021/09/07 02:47:12;;;;;;;10.05;3.33;;;;;;;;;;5074350;28;20047;-44
2021/09/07 02:49:39;;;;;;;10.13;3.20;;;;;;;;;;5093040;28;20012;-43
2021/09/07 02:52:06;;;;;;;15.20;3.05;;;;;;;;;;5092933;28;20016;-45
2021/09/07 02:54:34;;;;;;;17.40;3.05;;;;;;;;;;5092817;28;20464;-44
2021/09/07 02:57:01;;;;;;;6.63;2.70;;;;;;;;;;5093068;28;20024;-42
2021/09/07 02:59:28;;;;;;;7.22;2.80;;;;;;;;;;5092579;28;20028;-43
2021/09/07 03:01:55;;;;;;;7.95;3.20;;;;;;;;;;5092613;28;20050;-43
2021/09/07 03:04:22;;;;;;;7.03;3.35;;;;;;;;;;5092686;28;20480;-42
2021/09/07 03:06:49;;;;;;;9.98;2.60;;;;;;;;;;5092402;28;20070;-45
2021/09/07 03:09:16;;;;;;;5.35;2.38;;;;;;;;;;5092342;28;20410;-43
2021/09/07 03:11:43;;;;;;;10.93;2.90;;;;;;;;;;5092490;28;20008;-45
2021/09/07 03:14:11;;;;;;;8.07;3.22;;;;;;;;;;5092525;28;20073;-42
2021/09/07 03:16:38;;;;;;;5.75;2.58;;;;;;;;;;5092048;28;20476;-47
2021/09/07 03:19:05;;;;;;;7.72;2.60;;;;;;;;;;5092366;28;20047;-47
2021/09/07 03:21:32;;;;;;;6.40;2.70;;;;;;;;;;5092243;28;20019;-42
2021/09/07 03:23:59;;;;;;;5.18;2.75;;;;;;;;;;5092330;28;20459;-44
2021/09/07 03:26:27;;;;;;;10.43;2.45;;;;;;;;;;5092328;28;20086;-41
2021/09/07 03:28:54;;;;;;;5.53;2.28;;;;;;;;;;5091974;28;20063;-45
2021/09/07 03:31:21;;;;;;;5.88;2.38;;;;;;;;;;5091883;28;20030;-45
2021/09/07 03:33:48;;;;;;;6.68;3.05;;;;;;;;;;5092087;28;20081;-42
2021/09/07 03:36:15;;;;;;;7.10;2.38;;;;;;;;;;5073405;28;20016;-43
2021/09/07 03:38:42;;;;;;;7.82;2.30;;;;;;;;;;5091800;28;20048;-44
2021/09/07 03:41:11;;;;;;;7.05;2.00;;;;;;;;;;5073894;28;20016;-43
2021/09/07 03:43:38;;;;;;;4.57;2.00;;;;;;;;;;5091846;28;20036;-44
2021/09/07 03:46:05;;;;;;;5.00;2.22;;;;;;;;;;5091860;28;20020;-44
2021/09/07 03:48:33;;;;;;;8.48;2.00;;;;;;;;;;5092047;28;20077;-45
2021/09/07 03:51:00;;;;;;;4.35;2.17;;;;;;;;;;5091896;28;20042;-44
2021/09/07 03:53:29;;;;;;;5.25;1.95;;;;;;;;;;5106067;28;20502;-43
2021/09/07 03:55:56;;;;;;;5.22;2.20;;;;;;;;;;5092036;28;20046;-43
2021/09/07 03:58:23;;;;;;;6.20;2.05;;;;;;;;;;5091104;28;20123;-45
2021/09/07 04:00:50;;;;;;;4.05;2.30;;;;;;;;;;5091516;28;20028;-44
2021/09/07 04:03:18;;;;;;;3.75;2.10;;;;;;;;;;5091876;28;20107;-43
2021/09/07 04:05:45;;;;;;;4.57;1.77;;;;;;;;;;5106001;28;20101;-42
2021/09/07 04:08:12;;;;;;;4.20;2.00;;;;;;;;;;5091470;28;20056;-43
2021/09/07 04:10:39;;;;;;;3.38;2.05;;;;;;;;;;5091189;28;20352;-44
2021/09/07 04:13:06;;;;;;;5.30;2.20;;;;;;;;;;5091762;28;20024;-44
2021/09/07 04:15:34;;;;;;;4.53;2.00;;;;;;;;;;5091102;28;20028;-44
2021/09/07 04:18:01;;;;;;;4.32;2.00;;;;;;;;;;5058846;28;20111;-43
2021/09/07 04:20:28;;;;;;;5.18;2.00;;;;;;;;;;5091615;28;20065;-42
2021/09/07 04:22:55;;;;;;;2.75;1.67;;;;;;;;;;5091182;28;20012;-42
2021/09/07 04:25:22;;;;;;;3.25;1.60;;;;;;;;;;5091451;28;20020;-44
2021/09/07 04:27:49;;;;;;;3.63;2.08;;;;;;;;;;5072965;28;20069;-42
2021/09/07 04:30:16;;;;;;;3.40;2.03;;;;;;;;;;5091191;28;20107;-43
2021/09/07 04:32:43;;;;;;;6.05;2.20;;;;;;;;;;5091003;28;20650;-42
2021/09/07 04:35:10;;;;;;;4.63;1.77;;;;;;;;;;5094361;28;20019;-44
2021/09/07 04:37:37;;;;;;;7.15;1.90;;;;;;;;;;5101745;28;20053;-42
2021/09/07 04:40:05;;;;;;;5.57;1.73;;;;;;;;;;5090990;28;20395;-44
2021/09/07 04:42:32;;;;;;;4.32;1.95;;;;;;;;;;5091530;28;20028;-45
2021/09/07 04:44:59;;;;;;;9.23;2.15;;;;;;;;;;5090893;28;20055;-44
2021/09/07 04:47:26;;;;;;;6.70;2.13;;;;;;;;;;5085866;28;20480;-43
2021/09/07 04:49:53;;;;;;;3.65;1.90;;;;;;;;;;5091375;28;20069;-44
2021/09/07 04:52:20;;;;;;;3.40;2.00;;;;;;;;;;5091089;28;20486;-45
2021/09/07 04:54:47;;;;;;;3.80;1.90;;;;;;;;;;5091225;28;20057;-44
2021/09/07 04:57:14;;;;;;;4.15;1.70;;;;;;;;;;5091025;28;20020;-43
2021/09/07 04:59:41;;;;;;;2.78;1.52;;;;;;;;;;5091030;28;20388;-44
2021/09/07 05:02:08;;;;;;;3.88;1.67;;;;;;;;;;5090785;28;20035;-44
2021/09/07 05:04:35;;;;;;;4.72;1.50;;;;;;;;;;5091068;28;20024;-42
2021/09/07 05:07:02;;;;;;;4.25;2.00;;;;;;;;;;5090941;28;20436;-43
2021/09/07 05:09:29;;;;;;;3.78;1.83;;;;;;;;;;5091636;28;20026;-42
2021/09/07 05:11:56;;;;;;;4.60;1.90;;;;;;;;;;5095057;28;20027;-43
2021/09/07 05:14:23;;;;;;;3.05;1.58;;;;;;;;;;5094672;28;20052;-44
2021/09/07 05:16:50;;;;;;;6.03;1.83;;;;;;;;;;5094659;28;20159;-42
2021/09/07 05:19:17;;;;;;;4.50;2.00;;;;;;;;;;5094739;28;20482;-43
2021/09/07 05:21:44;;;;;;;3.08;1.63;;;;;;;;;;5094723;28;20364;-42
2021/09/07 05:24:11;;;;;;;4.25;1.83;;;;;;;;;;5076404;28;20078;-44
2021/09/07 05:26:38;;;;;;;3.28;1.95;;;;;;;;;;5094293;28;20387;-44
2021/09/07 05:29:05;;;;;;;3.60;1.58;;;;;;;;;;5094254;28;20024;-44
2021/09/07 05:31:32;;;;;;;2.30;1.58;;;;;;;;;;5062529;28;20024;-44
2021/09/07 05:33:59;;;;;;;2.75;1.60;;;;;;;;;;5094441;28;20012;-43
2021/09/07 05:36:26;;;;;;;2.15;1.77;;;;;;;;;;5106399;28;20022;-44
2021/09/07 05:38:53;;;;;;;3.13;1.98;;;;;;;;;;5066521;28;20044;-42
2021/09/07 05:41:20;;;;;;;3.42;1.60;;;;;;;;;;5085724;28;20020;-43
2021/09/07 05:43:48;;;;;;;3.50;1.42;;;;;;;;;;5082016;28;20576;-45
2021/09/07 05:46:15;;;;;;;2.08;1.58;;;;;;;;;;5070941;28;20022;-44
2021/09/07 05:48:42;;;;;;;2.28;1.50;;;;;;;;;;5073986;28;20593;-43
2021/09/07 05:51:09;;;;;;;2.55;1.60;;;;;;;;;;5073825;28;20388;-43
2021/09/07 05:53:37;;;;;;;1.85;1.40;;;;;;;;;;5079424;28;20477;-44
2021/09/07 05:56:04;;;;;;;3.00;1.70;;;;;;;;;;5078879;28;20368;-42
2021/09/07 05:58:31;;;;;;;2.65;1.42;;;;;;;;;;5073587;28;20526;-43
2021/09/07 06:00:58;;;;;;;4.20;1.60;;;;;;;;;;5090891;28;20035;-45
2021/09/07 06:03:25;;;;;;;1.90;1.30;;;;;;;;;;5078912;28;20446;-44
2021/09/07 06:05:52;;;;;;;4.65;1.70;;;;;;;;;;5073766;28;20078;-42
2021/09/07 06:08:19;;;;;;;1.83;1.20;;;;;;;;;;5073452;28;20108;-44
2021/09/07 06:10:46;;;;;;;3.10;1.60;;;;;;;;;;5073498;28;21028;-44
2021/09/07 06:13:14;;;;;;;2.10;1.55;;;;;;;;;;5073412;28;20016;-42
2021/09/07 06:15:41;;;;;;;2.22;1.40;;;;;;;;;;5073419;28;20417;-44
2021/09/07 06:18:08;;;;;;;2.13;1.48;;;;;;;;;;5074879;28;20039;-43
2021/09/07 06:20:35;;;;;;;2.05;1.30;;;;;;;;;;5093452;28;20061;-42
2021/09/07 06:23:02;;;;;;;3.13;1.50;;;;;;;;;;5073368;28;20013;-43
2021/09/07 06:25:29;;;;;;;2.15;1.50;;;;;;;;;;5055477;28;20016;-43
2021/09/07 06:27:56;;;;;;;4.72;1.60;;;;;;;;;;5072974;28;20373;-44
2021/09/07 06:30:23;;;;;;;2.08;1.50;;;;;;;;;;5073012;28;20028;-45
2021/09/07 06:32:50;;;;;;;2.83;1.50;;;;;;;;;;5087261;28;20414;-44
2021/09/07 06:35:17;;;;;;;1.85;1.40;;;;;;;;;;5073172;28;20469;-44
2021/09/07 06:37:44;;;;;;;3.15;1.40;;;;;;;;;;5072616;28;20040;-43
2021/09/07 06:40:12;;;;;;;2.45;1.40;;;;;;;;;;5073130;28;20024;-44
2021/09/07 06:42:39;;;;;;;2.58;1.45;;;;;;;;;;5085433;28;20024;-43
2021/09/07 06:45:06;;;;;;;2.28;1.50;;;;;;;;;;5074175;28;20024;-42
2021/09/07 06:47:33;;;;;;;3.13;1.40;;;;;;;;;;5072618;28;20012;-43
2021/09/07 06:50:01;;;;;;;2.97;1.25;;;;;;;;;;5087210;28;20017;-46
2021/09/07 06:52:29;;;;;;;3.10;1.50;;;;;;;;;;5085399;28;20047;-43
2021/09/07 06:54:56;;;;;;;2.38;1.42;;;;;;;;;;5082330;28;20016;-44
2021/09/07 06:57:23;;;;;;;1.88;1.00;;;;;;;;;;5072356;28;20446;-44
2021/09/07 06:59:50;;;;;;;2.25;1.30;;;;;;;;;;5088182;28;20027;-43
2021/09/07 07:02:17;;;;;;;2.15;1.40;;;;;;;;;;5079360;28;20103;-47
2021/09/07 07:04:44;;;;;;;2.63;1.40;;;;;;;;;;5054910;28;20016;-42
2021/09/07 07:07:11;;;;;;;3.42;1.25;;;;;;;;;;5072401;28;20067;-44
2021/09/07 07:09:38;;;;;;;2.22;1.40;;;;;;;;;;5072217;28;20052;-44
2021/09/07 07:12:06;;;;;;;4.78;1.60;;;;;;;;;;5072240;28;20063;-42
2021/09/07 07:14:33;;;;;;;1.60;1.20;;;;;;;;;;5072088;28;20442;-43
2021/09/07 07:17:00;;;;;;;1.55;1.20;;;;;;;;;;5072147;28;20020;-44
2021/09/07 07:19:27;;;;;;;2.67;1.38;;;;;;;;;;5072289;28;20543;-43
2021/09/07 07:21:54;;;;;;;2.88;1.50;;;;;;;;;;5072270;28;20020;-44
2021/09/07 07:24:21;;;;;;;2.03;1.27;;;;;;;;;;5089180;28;20032;-44
2021/09/07 07:26:48;;;;;;;2.05;1.30;;;;;;;;;;5089697;28;20036;-42
2021/09/07 07:29:16;;;;;;;2.80;1.25;;;;;;;;;;5092194;28;20020;-43
2021/09/07 07:31:43;;;;;;;2.33;1.33;;;;;;;;;;5089218;28;20100;-43
2021/09/07 07:34:10;;;;;;;3.67;1.40;;;;;;;;;;5088159;28;20020;-43
2021/09/07 07:36:37;;;;;;;2.75;1.40;;;;;;;;;;5085291;28;20059;-43
2021/09/07 07:39:04;;;;;;;1.90;1.17;;;;;;;;;;5080715;28;20492;-43
2021/09/07 07:41:31;;;;;;;2.35;1.38;;;;;;;;;;5071540;28;20017;-43
2021/09/07 07:43:58;;;;;;;2.75;1.23;;;;;;;;;;5072015;28;20078;-45
2021/09/07 07:46:25;;;;;;;2.00;1.33;;;;;;;;;;5061332;28;20616;-44
2021/09/07 07:48:54;;;;;;;2.80;1.05;;;;;;;;;;5071650;28;20032;-44
2021/09/07 07:51:21;;;;;;;1.77;1.13;;;;;;;;;;5071854;28;20021;-43
2021/09/07 07:53:48;;;;;;;2.00;1.23;;;;;;;;;;5071420;28;20035;-43
2021/09/07 07:56:15;;;;;;;1.35;1.20;;;;;;;;;;5071284;28;20023;-42
2021/09/07 07:58:42;;;;;;;1.50;1.10;;;;;;;;;;5071532;28;20032;-43
2021/09/07 08:01:09;;;;;;;2.35;1.27;;;;;;;;;;5053648;28;20012;-45
2021/09/07 08:03:36;;;;;;;1.98;1.30;;;;;;;;;;5071441;28;20020;-42
2021/09/07 08:06:03;;;;;;;1.67;0.93;;;;;;;;;;5071346;28;20098;-45
2021/09/07 08:08:30;;;;;;;5.80;1.13;;;;;;;;;;5075159;28;20020;-43
2021/09/07 08:10:57;;;;;;;2.50;1.35;;;;;;;;;;5073611;28;20055;-45
2021/09/07 08:13:24;;;;;;;1.73;1.20;;;;;;;;;;5091473;28;20069;-42
2021/09/07 08:15:51;;;;;;;2.70;1.20;;;;;;;;;;5088862;28;20102;-46
2021/09/07 08:18:18;;;;;;;2.42;1.30;;;;;;;;;;5091153;28;20028;-42
2021/09/07 08:20:45;;;;;;;4.38;1.20;;;;;;;;;;5089162;28;20031;-41
2021/09/07 08:23:12;;;;;;;3.00;1.58;;;;;;;;;;5080702;28;20048;-42
2021/09/07 08:25:39;;;;;;;1.65;1.20;;;;;;;;;;5083853;28;20100;-43
2021/09/07 08:28:06;;;;;;;1.35;0.93;;;;;;;;;;5080172;28;20032;-42
2021/09/07 08:30:33;;;;;;;3.22;1.10;;;;;;;;;;5076326;28;20088;-42
2021/09/07 08:33:00;;;;;;;1.60;1.00;;;;;;;;;;5079586;28;20442;-43
2021/09/07 08:35:27;;;;;;;2.13;1.10;;;;;;;;;;5091532;28;20019;-43
2021/09/07 08:37:55;;;;;;;2.17;1.20;;;;;;;;;;5088535;28;20055;-42
2021/09/07 08:40:22;;;;;;;2.72;1.48;;;;;;;;;;5088735;28;20088;-42
2021/09/07 08:42:49;;;;;;;3.00;1.20;;;;;;;;;;5070921;28;20028;-42
2021/09/07 08:45:16;;;;;;;3.40;1.40;;;;;;;;;;5092739;28;20047;-41
2021/09/07 08:47:47;;;;;;;1.88;1.25;;;;;;;;;;5072443;28;20060;-42
2021/09/07 08:50:14;;;;;;;3.70;1.10;;;;;;;;;;5083171;28;20021;-44
2021/09/07 08:52:42;;;;;;;2.88;1.40;;;;;;;;;;5080649;28;20487;-44
2021/09/07 08:55:09;;;;;;;3.13;1.20;;;;;;;;;;5092691;28;20027;-43
2021/09/07 08:57:36;;;;;;;1.55;1.20;;;;;;;;;;5092715;28;20055;-43
2021/09/07 09:00:05;;;;;;;2.28;1.33;;;;;;;;;;5092829;28;20020;-42
2021/09/07 09:02:39;;;;;;;1.70;1.08;;;;;;;;;;5074898;28;20027;-42
2021/09/07 09:05:06;;;;;;;1.98;1.30;;;;;;;;;;5075063;28;20020;-42
2021/09/07 09:07:34;;;;;;;1.85;1.23;;;;;;;;;;5074549;28;20025;-42
2021/09/07 09:10:01;;;;;;;1.77;1.20;;;;;;;;;;5089053;28;20016;-43
2021/09/07 09:12:33;;;;;;;2.33;1.20;;;;;;;;;;5092464;28;20028;-43
2021/09/07 09:15:00;;;;;;;2.30;1.38;;;;;;;;;;5092337;28;20028;-45
2021/09/07 09:17:28;;;;;;;1.90;1.33;;;;;;;;;;5092528;28;20086;-43
2021/09/07 09:20:04;;;;;;;1.70;1.27;;;;;;;;;;5085319;28;20021;-42
2021/09/07 09:22:41;;;;;;;2.00;1.48;;;;;;;;;;5074520;28;20025;-44
2021/09/07 09:25:31;;;;;;;1.85;1.42;;;;;;;;;;5074557;28;20017;-43
2021/09/07 09:28:18;;;;;;;1.70;1.15;;;;;;;;;;5080671;28;20475;-43
2021/09/07 09:30:47;;;;;;;1.95;1.40;;;;;;;;;;5074443;28;20229;-45
2021/09/07 09:33:15;;;;;;;1.95;1.20;;;;;;;;;;5074325;28;20491;-43
2021/09/07 09:35:46;;;;;;;3.97;1.20;;;;;;;;;;5074386;28;20055;-45
2021/09/07 09:38:13;;;;;;;4.28;1.30;;;;;;;;;;5074009;28;20055;-45
2021/09/07 09:40:40;;;;;;;2.65;1.48;;;;;;;;;;5073523;28;20024;-43
2021/09/07 09:43:25;;;;;;;2.03;1.20;;;;;;;;;;5073997;28;20017;-42
2021/09/07 09:45:53;;;;;;;3.88;1.20;;;;;;;;;;5073862;28;20363;-43
2021/09/07 09:48:23;;;;;;;1.73;1.10;;;;;;;;;;5073597;28;20523;-42
2021/09/07 09:50:54;;;;;;;3.22;1.42;;;;;;;;;;5069756;28;20098;-43
2021/09/07 09:53:21;;;;;;;3.72;1.30;;;;;;;;;;5073945;28;20459;-43
2021/09/07 09:55:49;;;;;;;2.45;1.15;;;;;;;;;;5072575;28;20027;-46
2021/09/07 09:58:17;;;;;;;2.88;1.33;;;;;;;;;;5073817;28;20115;-45
2021/09/07 10:00:47;;;;;;;1.73;1.38;;;;;;;;;;5073198;28;20029;-46
2021/09/07 10:03:15;;;;;;;3.35;1.60;;;;;;;;;;5073741;28;20028;-45
2021/09/07 10:05:42;;;;;;;3.53;1.73;;;;;;;;;;5073616;28;20476;-45
2021/09/07 10:08:11;;;;;;;5.30;1.40;;;;;;;;;;5073757;28;20024;-46
2021/09/07 10:10:58;;;;;;;2.50;1.30;;;;;;;;;;5073655;28;20021;-44
2021/09/07 10:13:30;;;;;;;2.45;1.35;;;;;;;;;;5073822;28;20492;-44
2021/09/07 10:16:00;;;;;;;2.67;1.40;;;;;;;;;;5073594;28;20469;-46
2021/09/07 10:18:33;;;;;;;4.28;1.50;;;;;;;;;;5073184;28;20056;-43
2021/09/07 10:24:03;;;;;;;3.03;1.98;;;;;;;;;;5073902;28;20039;-44
2021/09/07 10:29:07;;;;;;;3.03;1.70;;;;;;;;;;5077743;28;20021;-47
2021/09/07 10:31:41;;;;;;;2.50;1.25;;;;;;;;;;5078000;28;20102;-44
2021/09/07 10:34:08;;;;;;;4.38;1.30;;;;;;;;;;5075524;28;20356;-45
2021/09/07 10:36:58;;;;;;;3.28;1.50;;;;;;;;;;5100847;28;20028;-43
2021/09/07 10:39:34;;;;;;;4.07;1.30;;;;;;;;;;5055450;28;20611;-44
2021/09/07 10:42:02;;;;;;;6.82;1.55;;;;;;;;;;5083856;28;20024;-43
2021/09/07 10:44:31;;;;;;;3.65;1.55;;;;;;;;;;5089649;28;20031;-44
2021/09/07 10:46:58;;;;;;;4.15;1.27;;;;;;;;;;5095849;28;20511;-44
2021/09/07 10:49:46;;;;;;;2.78;1.40;;;;;;;;;;5087770;28;20479;-45
2021/09/07 10:52:18;;;;;;;3.72;1.50;;;;;;;;;;5079149;28;20024;-43
2021/09/07 10:54:54;;;;;;;3.05;1.33;;;;;;;;;;5086007;28;20017;-45
2021/09/07 10:57:33;;;;;;;2.65;1.40;;;;;;;;;;5092127;28;20032;-46
2021/09/07 11:00:04;;;;;;;3.67;1.83;;;;;;;;;;5085219;28;20024;-44
2021/09/07 11:02:30;;;;;;;4.65;1.60;;;;;;;;;;5086243;28;20495;-44
2021/09/07 11:05:04;;;;;;;2.10;1.50;;;;;;;;;;5087560;28;20028;-43
2021/09/07 11:07:37;;;;;;;4.13;1.30;;;;;;;;;;5086026;28;20016;-43
2021/09/07 11:10:04;;;;;;;4.53;1.75;;;;;;;;;;5078488;28;20028;-45
2021/09/07 11:12:33;;;;;;;5.43;1.60;;;;;;;;;;5092522;28;20108;-45
2021/09/07 11:15:08;;;;;;;3.17;1.38;;;;;;;;;;5091117;28;20027;-44
2021/09/07 11:17:35;;;;;;;1.95;1.15;;;;;;;;;;5085065;28;20028;-46
2021/09/07 11:20:08;;;;;;;5.82;1.40;;;;;;;;;;5092714;28;20586;-42
2021/09/07 11:22:37;;;;;;;7.03;1.48;;;;;;;;;;5093493;28;20012;-47
2021/09/07 11:25:05;;;;;;;20.98;1.80;;;;;;;;;;5087195;28;20028;-42
2021/09/07 11:27:48;;;;;;;164.00;7.10;;;;;;;;;;5090097;28;20024;-44
2021/09/07 11:30:22;;;;;;;74.72;7.05;;;;;;;;;;5092551;28;20028;-42
2021/09/07 11:32:50;;;;;;;59.38;5.53;;;;;;;;;;5089756;28;20059;-42
2021/09/07 11:35:17;;;;;;;47.53;4.43;;;;;;;;;;5089671;28;20487;-43
2021/09/07 11:37:44;;;;;;;35.25;2.95;;;;;;;;;;5085808;28;20084;-43
2021/09/07 11:40:12;;;;;;;23.70;2.40;;;;;;;;;;5089015;28;20024;-43
2021/09/07 11:42:48;;;;;;;19.10;2.60;;;;;;;;;;5089243;28;20087;-39
2021/09/07 11:45:23;;;;;;;8.57;2.30;;;;;;;;;;5078657;28;20114;-42
2021/09/07 11:47:50;;;;;;;8.25;2.60;;;;;;;;;;5084735;28;20021;-38
2021/09/07 11:50:21;;;;;;;8.38;1.75;;;;;;;;;;5084407;28;20353;-36
2021/09/07 11:52:50;;;;;;;7.22;1.83;;;;;;;;;;5073012;28;20021;-38
2021/09/07 11:55:35;;;;;;;5.57;1.63;;;;;;;;;;5082111;28;20362;-38
2021/09/07 11:58:02;;;;;;;6.35;1.42;;;;;;;;;;5088609;28;20039;-40
2021/09/07 12:00:29;;;;;;;5.57;1.20;;;;;;;;;;5085232;28;20047;-41
2021/09/07 12:03:16;;;;;;;8.30;1.50;;;;;;;;;;5083947;28;20464;-41
2021/09/07 12:05:59;;;;;;;6.97;1.42;;;;;;;;;;5087344;28;20032;-40
2021/09/07 12:08:44;;;;;;;8.05;1.45;;;;;;;;;;5080839;28;20368;-39
2021/09/07 12:11:13;;;;;;;6.15;1.20;;;;;;;;;;5081335;28;20109;-42
2021/09/07 12:13:40;;;;;;;4.10;1.00;;;;;;;;;;5084033;28;20033;-40
2021/09/07 12:16:07;;;;;;;5.95;1.02;;;;;;;;;;5072321;28;20062;-40
2021/09/07 12:18:39;;;;;;;7.50;1.20;;;;;;;;;;5083624;28;20519;-39
2021/09/07 12:21:10;;;;;;;3.67;1.13;;;;;;;;;;5084217;28;20021;-40
2021/09/07 12:23:39;;;;;;;3.23;1.23;;;;;;;;;;5088038;28;20038;-39
2021/09/07 12:26:06;;;;;;;4.57;1.55;;;;;;;;;;5079002;28;20289;-39
2021/09/07 12:28:34;;;;;;;3.10;1.10;;;;;;;;;;5081964;28;20354;-42
2021/09/07 12:31:11;;;;;;;5.07;1.17;;;;;;;;;;5083747;28;20446;-40
2021/09/07 12:33:42;;;;;;;7.00;1.30;;;;;;;;;;5086240;28;20418;-40
2021/09/07 12:36:10;;;;;;;2.35;0.90;;;;;;;;;;5085045;28;20021;-39
2021/09/07 12:38:37;;;;;;;5.47;1.10;;;;;;;;;;5080296;28;20384;-38
2021/09/07 12:41:10;;;;;;;4.25;1.00;;;;;;;;;;5084620;28;20040;-43
2021/09/07 12:43:42;;;;;;;3.70;1.00;;;;;;;;;;5076409;28;20024;-40
2021/09/07 12:46:11;;;;;;;2.70;1.00;;;;;;;;;;5083344;28;20029;-42
2021/09/07 12:48:40;;;;;;;5.22;1.00;;;;;;;;;;5066552;28;20028;-42
2021/09/07 12:51:08;;;;;;;6.18;1.10;;;;;;;;;;5097644;28;20030;-39
2021/09/07 12:53:45;;;;;;;4.47;1.33;;;;;;;;;;5092691;28;20103;-40
2021/09/07 12:56:14;;;;;;;5.68;1.08;;;;;;;;;;5084498;28;20085;-40
2021/09/07 12:58:48;;;;;;;3.80;1.00;;;;;;;;;;5059493;28;20036;-40
2021/09/07 13:01:15;;;;;;;2.33;0.90;;;;;;;;;;5087415;28;20492;-42
2021/09/07 13:03:42;;;;;;;7.13;1.20;;;;;;;;;;5086973;28;20036;-39
2021/09/07 13:06:10;;;;;;;2.88;1.00;;;;;;;;;;5079630;28;20024;-40
2021/09/07 13:08:37;;;;;;;3.20;1.10;;;;;;;;;;5089383;28;20028;-41
2021/09/07 13:11:05;;;;;;;2.75;0.90;;;;;;;;;;5085529;28;20050;-41
2021/09/07 13:13:32;;;;;;;2.80;1.15;;;;;;;;;;5086305;28;20360;-40
2021/09/07 13:15:59;;;;;;;3.10;0.90;;;;;;;;;;5095993;28;20027;-39
2021/09/07 13:18:28;;;;;;;3.13;0.95;;;;;;;;;;5089442;28;20043;-41
2021/09/07 13:20:59;;;;;;;6.45;1.10;;;;;;;;;;5095946;28;20107;-42
2021/09/07 13:23:26;;;;;;;1.85;0.77;;;;;;;;;;5085366;28;20113;-41
2021/09/07 13:25:53;;;;;;;6.22;0.93;;;;;;;;;;5086298;28;20005;-38
2021/09/07 13:28:21;;;;;;;5.97;1.10;;;;;;;;;;5089757;28;20100;-41
2021/09/07 13:30:48;;;;;;;5.22;1.15;;;;;;;;;;5088591;28;20020;-42
2021/09/07 13:33:15;;;;;;;13.18;2.00;;;;;;;;;;5093537;28;20032;-41
2021/09/07 13:35:43;;;;;;;11.60;1.88;;;;;;;;;;5096317;28;20028;-41
2021/09/07 13:38:10;;;;;;;8.02;1.88;;;;;;;;;;5097742;28;20044;-41
2021/09/07 13:40:37;;;;;;;7.82;2.40;;;;;;;;;;5101686;28;20027;-42
2021/09/07 13:43:05;;;;;;;10.82;2.25;;;;;;;;;;5089086;28;20028;-44
2021/09/07 13:45:32;;;;;;;9.02;2.55;;;;;;;;;;5098048;28;20024;-43
2021/09/07 13:47:59;;;;;;;7.55;1.80;;;;;;;;;;5093098;28;20024;-42
2021/09/07 13:50:26;;;;;;;23.00;2.08;;;;;;;;;;5088306;28;20154;-39
2021/09/07 13:52:54;;;;;;;17.55;1.90;;;;;;;;;;5099045;28;20024;-39
2021/09/07 13:55:20;;;;;;;12.88;2.55;;;;;;;;;;5090547;28;20017;-42
2021/09/07 13:57:47;;;;;;;10.73;1.65;;;;;;;;;;5097282;28;20016;-43
2021/09/07 14:00:15;;;;;;;14.32;1.83;;;;;;;;;;5095645;28;20030;-42
2021/09/07 14:02:42;;;;;;;7.25;1.52;;;;;;;;;;5096651;28;20008;-43
2021/09/07 14:05:13;;;;;;;7.38;1.58;;;;;;;;;;5091135;28;20368;-39
2021/09/07 14:07:41;;;;;;;7.13;1.58;;;;;;;;;;5089400;28;20027;-40
2021/09/07 14:10:08;;;;;;;8.52;1.67;;;;;;;;;;5097863;28;20026;-42
2021/09/07 14:12:35;;;;;;;6.95;1.75;;;;;;;;;;5083720;28;20028;-42
2021/09/07 14:15:03;;;;;;;8.57;1.92;;;;;;;;;;5090204;28;20012;-40
2021/09/07 14:17:30;;;;;;;10.82;1.58;;;;;;;;;;5083863;28;20034;-40
2021/09/07 14:19:57;;;;;;;9.23;1.45;;;;;;;;;;5082196;28;20016;-41
2021/09/07 14:22:24;;;;;;;10.07;1.40;;;;;;;;;;5090685;28;20008;-42
2021/09/07 14:24:51;;;;;;;12.93;1.75;;;;;;;;;;5089741;28;20062;-40
2021/09/07 14:27:18;;;;;;;11.85;1.95;;;;;;;;;;5089509;28;20470;-42
2021/09/07 14:29:45;;;;;;;12.35;2.15;;;;;;;;;;5082087;28;20035;-39
2021/09/07 14:32:12;;;;;;;25.52;3.08;;;;;;;;;;5082585;28;20082;-40
2021/09/07 14:34:40;;;;;;;19.52;2.28;;;;;;;;;;5088012;28;20506;-42
2021/09/07 14:37:07;;;;;;;12.32;2.15;;;;;;;;;;5090294;28;20036;-43
2021/09/07 14:39:34;;;;;;;23.25;2.67;;;;;;;;;;5089580;28;20093;-40
2021/09/07 14:42:01;;;;;;;22.45;2.20;;;;;;;;;;5090839;28;20020;-40
2021/09/07 14:44:29;;;;;;;20.23;2.58;;;;;;;;;;5087522;28;20132;-43
2021/09/07 14:46:56;;;;;;;20.55;2.20;;;;;;;;;;5099737;28;20480;-41
2021/09/07 14:49:23;;;;;;;10.85;2.05;;;;;;;;;;5089131;28;20052;-41
2021/09/07 14:51:50;;;;;;;13.80;2.13;;;;;;;;;;5091108;28;20016;-41
2021/09/07 14:54:17;;;;;;;18.45;2.55;;;;;;;;;;5086032;28;20101;-41